sensor_id;sensor_type;location;lat;lon;timestamp;P1;durP1;ratioP1;P2;durP2;ratioP2
70744;SDS011;59284;31.390;34.904;2023-05-01T00:02:28;9.88;;;4.50;;
70744;SDS011;59284;31.390;34.904;2023-05-01T00:04:54;9.23;;;4.20;;
70744;SDS011;59284;31.390;34.904;2023-05-01T00:07:21;13.00;;;4.30;;
70744;SDS011;59284;31.390;34.904;2023-05-01T00:09:46;8.20;;;3.88;;
70744;SDS011;59284;31.390;34.904;2023-05-01T00:12:12;9.82;;;4.50;;
70744;SDS011;59284;31.390;34.904;2023-05-01T00:14:38;11.20;;;4.30;;
70744;SDS011;59284;31.390;34.904;2023-05-01T00:17:04;10.73;;;3.95;;
70744;SDS011;59284;31.390;34.904;2023-05-01T00:19:30;10.00;;;3.83;;
70744;SDS011;59284;31.390;34.904;2023-05-01T00:21:56;9.83;;;3.57;;
70744;SDS011;59284;31.390;34.904;2023-05-01T00:24:21;8.48;;;3.50;;
70744;SDS011;59284;31.390;34.904;2023-05-01T00:26:47;7.43;;;3.73;;
70744;SDS011;59284;31.390;34.904;2023-05-01T00:29:12;10.85;;;3.30;;
70744;SDS011;59284;31.390;34.904;2023-05-01T00:31:38;11.80;;;4.10;;
70744;SDS011;59284;31.390;34.904;2023-05-01T00:34:06;5.85;;;3.40;;
70744;SDS011;59284;31.390;34.904;2023-05-01T00:36:31;14.57;;;4.00;;
70744;SDS011;59284;31.390;34.904;2023-05-01T00:38:57;11.43;;;3.50;;
70744;SDS011;59284;31.390;34.904;2023-05-01T00:41:23;15.20;;;3.13;;
70744;SDS011;59284;31.390;34.904;2023-05-01T00:43:49;7.23;;;3.50;;
70744;SDS011;59284;31.390;34.904;2023-05-01T00:46:14;10.93;;;3.50;;
70744;SDS011;59284;31.390;34.904;2023-05-01T00:48:40;9.60;;;3.65;;
70744;SDS011;59284;31.390;34.904;2023-05-01T00:51:06;6.90;;;3.10;;
70744;SDS011;59284;31.390;34.904;2023-05-01T00:53:32;9.10;;;3.10;;
70744;SDS011;59284;31.390;34.904;2023-05-01T00:55:58;19.42;;;3.50;;
70744;SDS011;59284;31.390;34.904;2023-05-01T00:58:24;12.00;;;3.83;;
70744;SDS011;59284;31.390;34.904;2023-05-01T01:00:49;7.13;;;3.10;;
70744;SDS011;59284;31.390;34.904;2023-05-01T01:03:16;9.02;;;3.22;;
70744;SDS011;59284;31.390;34.904;2023-05-01T01:05:43;5.50;;;2.83;;
70744;SDS011;59284;31.390;34.904;2023-05-01T01:13:57;6.57;;;3.03;;
70744;SDS011;59284;31.390;34.904;2023-05-01T01:16:31;7.38;;;3.00;;
70744;SDS011;59284;31.390;34.904;2023-05-01T01:22:01;7.53;;;2.70;;
70744;SDS011;59284;31.390;34.904;2023-05-01T01:35:23;7.25;;;3.00;;
70744;SDS011;59284;31.390;34.904;2023-05-01T01:37:53;9.13;;;3.17;;
70744;SDS011;59284;31.390;34.904;2023-05-01T01:40:28;4.03;;;2.50;;
70744;SDS011;59284;31.390;34.904;2023-05-01T01:43:00;9.05;;;2.55;;
70744;SDS011;59284;31.390;34.904;2023-05-01T01:45:41;7.77;;;3.07;;
70744;SDS011;59284;31.390;34.904;2023-05-01T01:48:08;10.45;;;3.78;;
70744;SDS011;59284;31.390;34.904;2023-05-01T01:50:36;4.78;;;2.70;;
70744;SDS011;59284;31.390;34.904;2023-05-01T01:53:03;8.75;;;2.92;;
70744;SDS011;59284;31.390;34.904;2023-05-01T01:55:30;10.02;;;2.60;;
70744;SDS011;59284;31.390;34.904;2023-05-01T01:57:57;4.73;;;2.70;;
70744;SDS011;59284;31.390;34.904;2023-05-01T02:00:23;9.65;;;2.55;;
70744;SDS011;59284;31.390;34.904;2023-05-01T02:02:49;10.27;;;3.08;;
70744;SDS011;59284;31.390;34.904;2023-05-01T02:05:16;6.50;;;2.23;;
70744;SDS011;59284;31.390;34.904;2023-05-01T02:07:44;11.43;;;3.70;;
70744;SDS011;59284;31.390;34.904;2023-05-01T02:10:11;13.90;;;3.03;;
70744;SDS011;59284;31.390;34.904;2023-05-01T02:12:38;13.98;;;3.25;;
70744;SDS011;59284;31.390;34.904;2023-05-01T02:15:05;9.65;;;3.08;;
70744;SDS011;59284;31.390;34.904;2023-05-01T02:17:32;11.90;;;3.13;;
70744;SDS011;59284;31.390;34.904;2023-05-01T02:19:59;8.02;;;2.85;;
70744;SDS011;59284;31.390;34.904;2023-05-01T02:22:26;9.02;;;3.10;;
70744;SDS011;59284;31.390;34.904;2023-05-01T02:24:53;9.27;;;3.10;;
70744;SDS011;59284;31.390;34.904;2023-05-01T02:27:20;7.07;;;3.15;;
70744;SDS011;59284;31.390;34.904;2023-05-01T02:29:50;8.17;;;2.73;;
70744;SDS011;59284;31.390;34.904;2023-05-01T02:32:16;9.75;;;3.35;;
70744;SDS011;59284;31.390;34.904;2023-05-01T02:34:42;10.80;;;3.17;;
70744;SDS011;59284;31.390;34.904;2023-05-01T02:37:09;12.67;;;3.37;;
70744;SDS011;59284;31.390;34.904;2023-05-01T02:39:35;8.32;;;2.97;;
70744;SDS011;59284;31.390;34.904;2023-05-01T02:42:01;11.85;;;3.58;;
70744;SDS011;59284;31.390;34.904;2023-05-01T02:44:29;8.93;;;3.65;;
70744;SDS011;59284;31.390;34.904;2023-05-01T02:46:58;8.47;;;2.93;;
70744;SDS011;59284;31.390;34.904;2023-05-01T02:49:25;8.02;;;3.25;;
70744;SDS011;59284;31.390;34.904;2023-05-01T02:51:51;9.57;;;2.78;;
70744;SDS011;59284;31.390;34.904;2023-05-01T02:54:17;10.38;;;2.80;;
70744;SDS011;59284;31.390;34.904;2023-05-01T02:56:43;10.38;;;3.40;;
70744;SDS011;59284;31.390;34.904;2023-05-01T02:59:09;8.77;;;2.97;;
70744;SDS011;59284;31.390;34.904;2023-05-01T03:01:35;6.43;;;3.25;;
70744;SDS011;59284;31.390;34.904;2023-05-01T03:04:00;8.80;;;3.20;;
70744;SDS011;59284;31.390;34.904;2023-05-01T03:06:26;7.75;;;3.22;;
70744;SDS011;59284;31.390;34.904;2023-05-01T03:08:53;6.00;;;2.70;;
70744;SDS011;59284;31.390;34.904;2023-05-01T03:11:19;11.30;;;3.78;;
70744;SDS011;59284;31.390;34.904;2023-05-01T03:13:45;6.18;;;3.10;;
70744;SDS011;59284;31.390;34.904;2023-05-01T03:16:11;7.13;;;3.33;;
70744;SDS011;59284;31.390;34.904;2023-05-01T03:18:37;10.50;;;3.33;;
70744;SDS011;59284;31.390;34.904;2023-05-01T03:21:02;7.82;;;2.70;;
70744;SDS011;59284;31.390;34.904;2023-05-01T03:23:28;9.70;;;2.93;;
70744;SDS011;59284;31.390;34.904;2023-05-01T03:25:54;4.80;;;2.63;;
70744;SDS011;59284;31.390;34.904;2023-05-01T03:28:19;6.17;;;3.17;;
70744;SDS011;59284;31.390;34.904;2023-05-01T03:30:48;14.98;;;3.38;;
70744;SDS011;59284;31.390;34.904;2023-05-01T03:33:14;14.10;;;3.30;;
70744;SDS011;59284;31.390;34.904;2023-05-01T03:35:40;11.13;;;3.33;;
70744;SDS011;59284;31.390;34.904;2023-05-01T03:38:05;6.65;;;3.00;;
70744;SDS011;59284;31.390;34.904;2023-05-01T03:40:32;5.95;;;2.78;;
70744;SDS011;59284;31.390;34.904;2023-05-01T03:42:57;8.20;;;3.30;;
70744;SDS011;59284;31.390;34.904;2023-05-01T03:45:23;8.57;;;3.10;;
70744;SDS011;59284;31.390;34.904;2023-05-01T03:47:48;8.15;;;4.00;;
70744;SDS011;59284;31.390;34.904;2023-05-01T03:50:14;9.50;;;5.07;;
70744;SDS011;59284;31.390;34.904;2023-05-01T03:52:40;13.88;;;5.13;;
70744;SDS011;59284;31.390;34.904;2023-05-01T03:55:06;12.50;;;5.40;;
70744;SDS011;59284;31.390;34.904;2023-05-01T03:57:32;9.45;;;5.22;;
70744;SDS011;59284;31.390;34.904;2023-05-01T03:59:58;12.35;;;4.97;;
70744;SDS011;59284;31.390;34.904;2023-05-01T04:02:24;10.03;;;4.83;;
70744;SDS011;59284;31.390;34.904;2023-05-01T04:04:50;10.38;;;5.05;;
70744;SDS011;59284;31.390;34.904;2023-05-01T04:07:15;9.40;;;4.83;;
70744;SDS011;59284;31.390;34.904;2023-05-01T04:09:41;16.50;;;6.28;;
70744;SDS011;59284;31.390;34.904;2023-05-01T04:12:07;13.50;;;6.53;;
70744;SDS011;59284;31.390;34.904;2023-05-01T04:14:33;15.80;;;5.80;;
70744;SDS011;59284;31.390;34.904;2023-05-01T04:16:58;11.67;;;6.40;;
70744;SDS011;59284;31.390;34.904;2023-05-01T04:19:24;11.95;;;6.05;;
70744;SDS011;59284;31.390;34.904;2023-05-01T04:21:50;13.03;;;5.50;;
70744;SDS011;59284;31.390;34.904;2023-05-01T04:24:15;9.40;;;5.93;;
70744;SDS011;59284;31.390;34.904;2023-05-01T04:26:41;12.63;;;6.13;;
70744;SDS011;59284;31.390;34.904;2023-05-01T04:29:07;17.20;;;7.00;;
70744;SDS011;59284;31.390;34.904;2023-05-01T04:31:33;12.90;;;6.05;;
70744;SDS011;59284;31.390;34.904;2023-05-01T04:33:59;15.67;;;7.83;;
70744;SDS011;59284;31.390;34.904;2023-05-01T04:36:25;19.50;;;7.85;;
70744;SDS011;59284;31.390;34.904;2023-05-01T04:38:51;12.10;;;6.40;;
70744;SDS011;59284;31.390;34.904;2023-05-01T04:41:16;18.35;;;6.88;;
70744;SDS011;59284;31.390;34.904;2023-05-01T04:43:42;7.93;;;4.63;;
70744;SDS011;59284;31.390;34.904;2023-05-01T04:46:08;10.10;;;4.53;;
70744;SDS011;59284;31.390;34.904;2023-05-01T04:48:33;7.70;;;4.13;;
70744;SDS011;59284;31.390;34.904;2023-05-01T04:51:00;7.55;;;3.30;;
70744;SDS011;59284;31.390;34.904;2023-05-01T04:53:27;8.65;;;2.95;;
70744;SDS011;59284;31.390;34.904;2023-05-01T04:55:53;7.77;;;3.20;;
70744;SDS011;59284;31.390;34.904;2023-05-01T04:58:18;7.85;;;2.63;;
70744;SDS011;59284;31.390;34.904;2023-05-01T05:00:44;6.53;;;2.67;;
70744;SDS011;59284;31.390;34.904;2023-05-01T05:03:10;7.80;;;3.20;;
70744;SDS011;59284;31.390;34.904;2023-05-01T05:05:35;8.97;;;3.57;;
70744;SDS011;59284;31.390;34.904;2023-05-01T05:08:01;5.63;;;2.30;;
70744;SDS011;59284;31.390;34.904;2023-05-01T05:10:27;5.13;;;2.13;;
70744;SDS011;59284;31.390;34.904;2023-05-01T05:12:52;9.27;;;3.90;;
70744;SDS011;59284;31.390;34.904;2023-05-01T05:15:18;5.93;;;2.67;;
70744;SDS011;59284;31.390;34.904;2023-05-01T05:17:44;6.30;;;3.67;;
70744;SDS011;59284;31.390;34.904;2023-05-01T05:20:09;6.43;;;3.63;;
70744;SDS011;59284;31.390;34.904;2023-05-01T05:22:35;17.05;;;4.20;;
70744;SDS011;59284;31.390;34.904;2023-05-01T05:25:04;9.30;;;3.40;;
70744;SDS011;59284;31.390;34.904;2023-05-01T05:27:30;12.35;;;3.75;;
70744;SDS011;59284;31.390;34.904;2023-05-01T05:30:01;3.88;;;1.88;;
70744;SDS011;59284;31.390;34.904;2023-05-01T05:32:27;5.50;;;2.60;;
70744;SDS011;59284;31.390;34.904;2023-05-01T05:34:53;9.25;;;2.80;;
70744;SDS011;59284;31.390;34.904;2023-05-01T05:37:19;5.67;;;2.70;;
70744;SDS011;59284;31.390;34.904;2023-05-01T05:39:44;10.27;;;2.60;;
70744;SDS011;59284;31.390;34.904;2023-05-01T05:42:10;8.30;;;2.80;;
70744;SDS011;59284;31.390;34.904;2023-05-01T05:44:35;5.27;;;2.20;;
70744;SDS011;59284;31.390;34.904;2023-05-01T05:47:01;9.02;;;2.63;;
70744;SDS011;59284;31.390;34.904;2023-05-01T05:49:27;7.43;;;2.10;;
70744;SDS011;59284;31.390;34.904;2023-05-01T05:51:52;7.43;;;2.47;;
70744;SDS011;59284;31.390;34.904;2023-05-01T05:54:18;6.47;;;2.10;;
70744;SDS011;59284;31.390;34.904;2023-05-01T05:56:44;6.18;;;2.53;;
70744;SDS011;59284;31.390;34.904;2023-05-01T05:59:09;8.37;;;2.53;;
70744;SDS011;59284;31.390;34.904;2023-05-01T06:01:35;9.20;;;3.03;;
70744;SDS011;59284;31.390;34.904;2023-05-01T06:04:02;7.28;;;4.10;;
70744;SDS011;59284;31.390;34.904;2023-05-01T06:06:27;7.68;;;4.00;;
70744;SDS011;59284;31.390;34.904;2023-05-01T06:08:53;13.23;;;4.10;;
70744;SDS011;59284;31.390;34.904;2023-05-01T06:11:19;11.77;;;5.72;;
70744;SDS011;59284;31.390;34.904;2023-05-01T06:13:45;8.27;;;4.40;;
70744;SDS011;59284;31.390;34.904;2023-05-01T06:16:11;11.83;;;5.03;;
70744;SDS011;59284;31.390;34.904;2023-05-01T06:18:37;7.10;;;3.50;;
70744;SDS011;59284;31.390;34.904;2023-05-01T06:21:02;13.75;;;5.57;;
70744;SDS011;59284;31.390;34.904;2023-05-01T06:23:28;11.50;;;6.18;;
70744;SDS011;59284;31.390;34.904;2023-05-01T06:25:54;14.57;;;5.40;;
70744;SDS011;59284;31.390;34.904;2023-05-01T06:28:19;11.32;;;3.42;;
70744;SDS011;59284;31.390;34.904;2023-05-01T06:30:45;13.63;;;4.63;;
70744;SDS011;59284;31.390;34.904;2023-05-01T06:33:11;4.78;;;1.83;;
70744;SDS011;59284;31.390;34.904;2023-05-01T06:35:37;6.07;;;2.73;;
70744;SDS011;59284;31.390;34.904;2023-05-01T06:38:03;7.97;;;3.97;;
70744;SDS011;59284;31.390;34.904;2023-05-01T06:40:29;3.53;;;1.70;;
70744;SDS011;59284;31.390;34.904;2023-05-01T06:42:56;11.10;;;3.70;;
70744;SDS011;59284;31.390;34.904;2023-05-01T06:45:22;6.80;;;2.45;;
70744;SDS011;59284;31.390;34.904;2023-05-01T06:47:47;4.20;;;1.43;;
70744;SDS011;59284;31.390;34.904;2023-05-01T06:50:13;9.05;;;3.95;;
70744;SDS011;59284;31.390;34.904;2023-05-01T06:52:39;8.53;;;4.70;;
70744;SDS011;59284;31.390;34.904;2023-05-01T06:55:05;9.50;;;3.83;;
70744;SDS011;59284;31.390;34.904;2023-05-01T06:57:31;6.53;;;4.00;;
70744;SDS011;59284;31.390;34.904;2023-05-01T06:59:56;6.07;;;2.23;;
70744;SDS011;59284;31.390;34.904;2023-05-01T07:02:22;2.65;;;1.58;;
70744;SDS011;59284;31.390;34.904;2023-05-01T07:04:48;10.57;;;4.97;;
70744;SDS011;59284;31.390;34.904;2023-05-01T07:07:13;8.83;;;4.20;;
70744;SDS011;59284;31.390;34.904;2023-05-01T07:09:39;7.40;;;3.40;;
70744;SDS011;59284;31.390;34.904;2023-05-01T07:12:05;9.43;;;5.20;;
70744;SDS011;59284;31.390;34.904;2023-05-01T07:14:31;10.67;;;5.70;;
70744;SDS011;59284;31.390;34.904;2023-05-01T07:16:58;8.98;;;4.60;;
70744;SDS011;59284;31.390;34.904;2023-05-01T07:19:23;9.00;;;3.37;;
70744;SDS011;59284;31.390;34.904;2023-05-01T07:21:49;8.90;;;4.45;;
70744;SDS011;59284;31.390;34.904;2023-05-01T07:24:15;9.27;;;4.10;;
70744;SDS011;59284;31.390;34.904;2023-05-01T07:26:40;5.75;;;2.90;;
70744;SDS011;59284;31.390;34.904;2023-05-01T07:29:06;14.55;;;5.93;;
70744;SDS011;59284;31.390;34.904;2023-05-01T07:31:32;6.93;;;4.70;;
70744;SDS011;59284;31.390;34.904;2023-05-01T07:33:57;5.93;;;3.70;;
70744;SDS011;59284;31.390;34.904;2023-05-01T07:36:23;10.07;;;3.87;;
70744;SDS011;59284;31.390;34.904;2023-05-01T07:38:49;5.70;;;2.77;;
70744;SDS011;59284;31.390;34.904;2023-05-01T07:41:14;12.75;;;4.60;;
70744;SDS011;59284;31.390;34.904;2023-05-01T07:43:40;14.33;;;3.70;;
70744;SDS011;59284;31.390;34.904;2023-05-01T07:46:05;11.45;;;3.47;;
70744;SDS011;59284;31.390;34.904;2023-05-01T07:48:31;6.23;;;2.47;;
70744;SDS011;59284;31.390;34.904;2023-05-01T07:51:00;3.70;;;2.72;;
70744;SDS011;59284;31.390;34.904;2023-05-01T07:53:26;5.45;;;2.45;;
70744;SDS011;59284;31.390;34.904;2023-05-01T07:55:52;9.13;;;4.03;;
70744;SDS011;59284;31.390;34.904;2023-05-01T07:58:17;8.33;;;3.27;;
70744;SDS011;59284;31.390;34.904;2023-05-01T08:00:43;10.20;;;4.03;;
70744;SDS011;59284;31.390;34.904;2023-05-01T08:03:11;7.68;;;3.10;;
70744;SDS011;59284;31.390;34.904;2023-05-01T08:05:40;4.60;;;1.27;;
70744;SDS011;59284;31.390;34.904;2023-05-01T08:08:06;11.05;;;3.40;;
70744;SDS011;59284;31.390;34.904;2023-05-01T08:10:33;12.02;;;4.20;;
70744;SDS011;59284;31.390;34.904;2023-05-01T08:12:58;11.60;;;3.37;;
70744;SDS011;59284;31.390;34.904;2023-05-01T08:15:24;8.20;;;3.63;;
70744;SDS011;59284;31.390;34.904;2023-05-01T08:17:50;5.97;;;3.60;;
70744;SDS011;59284;31.390;34.904;2023-05-01T08:20:16;13.45;;;4.68;;
70744;SDS011;59284;31.390;34.904;2023-05-01T08:22:41;9.97;;;3.77;;
70744;SDS011;59284;31.390;34.904;2023-05-01T08:25:07;10.05;;;4.43;;
70744;SDS011;59284;31.390;34.904;2023-05-01T08:27:33;10.83;;;4.80;;
70744;SDS011;59284;31.390;34.904;2023-05-01T08:29:59;7.72;;;3.70;;
70744;SDS011;59284;31.390;34.904;2023-05-01T08:32:24;11.13;;;4.13;;
70744;SDS011;59284;31.390;34.904;2023-05-01T08:34:50;10.57;;;3.20;;
70744;SDS011;59284;31.390;34.904;2023-05-01T08:37:16;9.70;;;3.92;;
70744;SDS011;59284;31.390;34.904;2023-05-01T08:39:43;5.85;;;3.05;;
70744;SDS011;59284;31.390;34.904;2023-05-01T08:42:09;6.17;;;3.20;;
70744;SDS011;59284;31.390;34.904;2023-05-01T08:44:37;10.30;;;2.95;;
70744;SDS011;59284;31.390;34.904;2023-05-01T08:47:10;10.25;;;2.63;;
70744;SDS011;59284;31.390;34.904;2023-05-01T08:49:37;4.93;;;2.30;;
70744;SDS011;59284;31.390;34.904;2023-05-01T08:52:05;7.05;;;2.40;;
70744;SDS011;59284;31.390;34.904;2023-05-01T08:54:30;9.23;;;2.08;;
70744;SDS011;59284;31.390;34.904;2023-05-01T08:57:00;9.55;;;2.90;;
70744;SDS011;59284;31.390;34.904;2023-05-01T08:59:33;8.03;;;2.70;;
70744;SDS011;59284;31.390;34.904;2023-05-01T09:01:59;8.70;;;2.75;;
70744;SDS011;59284;31.390;34.904;2023-05-01T09:04:28;9.80;;;2.75;;
70744;SDS011;59284;31.390;34.904;2023-05-01T09:06:57;8.25;;;2.30;;
70744;SDS011;59284;31.390;34.904;2023-05-01T09:09:25;10.35;;;2.30;;
70744;SDS011;59284;31.390;34.904;2023-05-01T09:11:52;5.10;;;1.90;;
70744;SDS011;59284;31.390;34.904;2023-05-01T09:14:24;4.35;;;1.92;;
70744;SDS011;59284;31.390;34.904;2023-05-01T09:16:50;8.05;;;2.53;;
70744;SDS011;59284;31.390;34.904;2023-05-01T09:19:17;3.95;;;1.30;;
70744;SDS011;59284;31.390;34.904;2023-05-01T09:21:43;2.20;;;0.90;;
70744;SDS011;59284;31.390;34.904;2023-05-01T09:24:09;5.50;;;2.10;;
70744;SDS011;59284;31.390;34.904;2023-05-01T09:26:35;5.60;;;2.00;;
70744;SDS011;59284;31.390;34.904;2023-05-01T09:29:05;6.60;;;1.90;;
70744;SDS011;59284;31.390;34.904;2023-05-01T09:31:31;8.35;;;2.05;;
70744;SDS011;59284;31.390;34.904;2023-05-01T09:33:58;5.47;;;1.97;;
70744;SDS011;59284;31.390;34.904;2023-05-01T09:36:25;5.20;;;1.70;;
70744;SDS011;59284;31.390;34.904;2023-05-01T09:38:52;4.55;;;2.22;;
70744;SDS011;59284;31.390;34.904;2023-05-01T09:41:18;6.97;;;1.67;;
70744;SDS011;59284;31.390;34.904;2023-05-01T09:43:50;4.93;;;2.20;;
70744;SDS011;59284;31.390;34.904;2023-05-01T09:46:17;8.33;;;2.53;;
70744;SDS011;59284;31.390;34.904;2023-05-01T09:48:53;5.82;;;2.00;;
70744;SDS011;59284;31.390;34.904;2023-05-01T09:51:29;4.32;;;2.20;;
70744;SDS011;59284;31.390;34.904;2023-05-01T09:53:59;4.43;;;1.85;;
70744;SDS011;59284;31.390;34.904;2023-05-01T09:56:29;7.30;;;2.60;;
70744;SDS011;59284;31.390;34.904;2023-05-01T09:58:57;6.38;;;2.00;;
70744;SDS011;59284;31.390;34.904;2023-05-01T10:01:44;6.47;;;2.05;;
70744;SDS011;59284;31.390;34.904;2023-05-01T10:04:11;7.65;;;1.58;;
70744;SDS011;59284;31.390;34.904;2023-05-01T10:06:37;7.35;;;2.10;;
70744;SDS011;59284;31.390;34.904;2023-05-01T10:09:03;8.60;;;2.10;;
70744;SDS011;59284;31.390;34.904;2023-05-01T10:11:46;7.05;;;2.17;;
70744;SDS011;59284;31.390;34.904;2023-05-01T10:14:13;4.78;;;1.40;;
70744;SDS011;59284;31.390;34.904;2023-05-01T10:16:38;5.53;;;1.77;;
70744;SDS011;59284;31.390;34.904;2023-05-01T10:19:04;4.00;;;1.60;;
70744;SDS011;59284;31.390;34.904;2023-05-01T10:21:30;6.20;;;1.70;;
70744;SDS011;59284;31.390;34.904;2023-05-01T10:24:00;5.87;;;2.40;;
70744;SDS011;59284;31.390;34.904;2023-05-01T10:26:30;3.60;;;1.55;;
70744;SDS011;59284;31.390;34.904;2023-05-01T10:28:57;6.68;;;1.90;;
70744;SDS011;59284;31.390;34.904;2023-05-01T10:31:25;6.65;;;2.30;;
70744;SDS011;59284;31.390;34.904;2023-05-01T10:33:56;6.03;;;2.30;;
70744;SDS011;59284;31.390;34.904;2023-05-01T10:36:30;6.70;;;2.30;;
70744;SDS011;59284;31.390;34.904;2023-05-01T10:38:57;7.10;;;1.92;;
70744;SDS011;59284;31.390;34.904;2023-05-01T10:44:38;4.47;;;1.83;;
70744;SDS011;59284;31.390;34.904;2023-05-01T10:50:02;3.58;;;1.35;;
70744;SDS011;59284;31.390;34.904;2023-05-01T10:52:29;4.78;;;1.80;;
70744;SDS011;59284;31.390;34.904;2023-05-01T10:55:30;6.55;;;2.50;;
70744;SDS011;59284;31.390;34.904;2023-05-01T10:58:07;7.22;;;1.98;;
70744;SDS011;59284;31.390;34.904;2023-05-01T11:00:33;5.23;;;1.77;;
70744;SDS011;59284;31.390;34.904;2023-05-01T11:10:55;6.72;;;1.70;;
70744;SDS011;59284;31.390;34.904;2023-05-01T11:19:05;12.63;;;2.07;;
70744;SDS011;59284;31.390;34.904;2023-05-01T11:21:35;5.20;;;2.38;;
70744;SDS011;59284;31.390;34.904;2023-05-01T11:24:03;7.78;;;2.00;;
70744;SDS011;59284;31.390;34.904;2023-05-01T11:26:29;7.78;;;2.17;;
70744;SDS011;59284;31.390;34.904;2023-05-01T11:28:59;5.25;;;1.75;;
70744;SDS011;59284;31.390;34.904;2023-05-01T11:31:25;5.90;;;2.07;;
70744;SDS011;59284;31.390;34.904;2023-05-01T11:33:54;8.02;;;1.73;;
70744;SDS011;59284;31.390;34.904;2023-05-01T11:36:20;5.40;;;1.60;;
70744;SDS011;59284;31.390;34.904;2023-05-01T11:38:49;4.15;;;1.67;;
70744;SDS011;59284;31.390;34.904;2023-05-01T11:41:18;4.90;;;2.00;;
70744;SDS011;59284;31.390;34.904;2023-05-01T11:43:50;4.80;;;1.58;;
70744;SDS011;59284;31.390;34.904;2023-05-01T11:48:53;6.13;;;1.88;;
70744;SDS011;59284;31.390;34.904;2023-05-01T11:51:20;3.65;;;1.95;;
70744;SDS011;59284;31.390;34.904;2023-05-01T11:54:06;3.60;;;1.60;;
70744;SDS011;59284;31.390;34.904;2023-05-01T11:56:33;5.50;;;1.98;;
70744;SDS011;59284;31.390;34.904;2023-05-01T11:59:10;9.80;;;1.80;;
70744;SDS011;59284;31.390;34.904;2023-05-01T12:01:40;4.93;;;1.80;;
70744;SDS011;59284;31.390;34.904;2023-05-01T12:04:07;5.63;;;1.75;;
70744;SDS011;59284;31.390;34.904;2023-05-01T12:06:45;4.03;;;1.40;;
70744;SDS011;59284;31.390;34.904;2023-05-01T12:09:15;5.75;;;1.80;;
70744;SDS011;59284;31.390;34.904;2023-05-01T12:11:43;5.25;;;1.75;;
70744;SDS011;59284;31.390;34.904;2023-05-01T12:14:10;4.15;;;1.90;;
70744;SDS011;59284;31.390;34.904;2023-05-01T12:16:36;5.33;;;1.90;;
70744;SDS011;59284;31.390;34.904;2023-05-01T12:19:04;5.47;;;2.15;;
70744;SDS011;59284;31.390;34.904;2023-05-01T12:21:30;5.57;;;2.10;;
70744;SDS011;59284;31.390;34.904;2023-05-01T12:23:56;5.23;;;1.50;;
70744;SDS011;59284;31.390;34.904;2023-05-01T12:26:33;4.88;;;2.03;;
70744;SDS011;59284;31.390;34.904;2023-05-01T12:29:00;7.50;;;2.93;;
70744;SDS011;59284;31.390;34.904;2023-05-01T12:31:29;10.95;;;2.80;;
70744;SDS011;59284;31.390;34.904;2023-05-01T12:33:59;9.27;;;3.03;;
70744;SDS011;59284;31.390;34.904;2023-05-01T12:36:26;8.70;;;2.30;;
70744;SDS011;59284;31.390;34.904;2023-05-01T12:38:56;13.65;;;3.10;;
70744;SDS011;59284;31.390;34.904;2023-05-01T12:41:51;9.37;;;3.10;;
70744;SDS011;59284;31.390;34.904;2023-05-01T12:49:21;8.27;;;2.40;;
70744;SDS011;59284;31.390;34.904;2023-05-01T12:51:48;5.63;;;2.58;;
70744;SDS011;59284;31.390;34.904;2023-05-01T12:54:25;10.77;;;3.50;;
70744;SDS011;59284;31.390;34.904;2023-05-01T12:57:04;5.22;;;3.08;;
70744;SDS011;59284;31.390;34.904;2023-05-01T12:59:30;13.32;;;3.38;;
70744;SDS011;59284;31.390;34.904;2023-05-01T13:01:59;5.55;;;3.08;;
70744;SDS011;59284;31.390;34.904;2023-05-01T13:04:26;7.07;;;3.05;;
70744;SDS011;59284;31.390;34.904;2023-05-01T13:06:52;9.87;;;3.30;;
70744;SDS011;59284;31.390;34.904;2023-05-01T13:09:22;7.00;;;3.30;;
70744;SDS011;59284;31.390;34.904;2023-05-01T13:11:55;6.80;;;2.50;;
70744;SDS011;59284;31.390;34.904;2023-05-01T13:14:21;7.28;;;3.40;;
70744;SDS011;59284;31.390;34.904;2023-05-01T13:16:47;6.90;;;2.73;;
70744;SDS011;59284;31.390;34.904;2023-05-01T13:19:15;9.02;;;3.40;;
70744;SDS011;59284;31.390;34.904;2023-05-01T13:21:50;12.02;;;3.53;;
70744;SDS011;59284;31.390;34.904;2023-05-01T13:24:16;6.53;;;3.33;;
70744;SDS011;59284;31.390;34.904;2023-05-01T13:26:42;8.88;;;2.80;;
70744;SDS011;59284;31.390;34.904;2023-05-01T13:29:12;9.13;;;3.53;;
70744;SDS011;59284;31.390;34.904;2023-05-01T13:31:41;11.40;;;3.50;;
70744;SDS011;59284;31.390;34.904;2023-05-01T13:34:08;7.75;;;3.38;;
70744;SDS011;59284;31.390;34.904;2023-05-01T13:36:34;12.43;;;4.10;;
70744;SDS011;59284;31.390;34.904;2023-05-01T13:38:59;8.63;;;3.50;;
70744;SDS011;59284;31.390;34.904;2023-05-01T13:41:25;7.07;;;2.72;;
70744;SDS011;59284;31.390;34.904;2023-05-01T13:43:52;5.82;;;2.80;;
70744;SDS011;59284;31.390;34.904;2023-05-01T13:46:22;9.07;;;3.25;;
70744;SDS011;59284;31.390;34.904;2023-05-01T13:48:48;8.77;;;3.30;;
70744;SDS011;59284;31.390;34.904;2023-05-01T13:51:21;5.57;;;3.03;;
70744;SDS011;59284;31.390;34.904;2023-05-01T13:53:48;7.28;;;3.15;;
70744;SDS011;59284;31.390;34.904;2023-05-01T13:56:14;11.90;;;3.30;;
70744;SDS011;59284;31.390;34.904;2023-05-01T13:58:40;7.53;;;3.55;;
70744;SDS011;59284;31.390;34.904;2023-05-01T14:01:16;9.63;;;3.05;;
70744;SDS011;59284;31.390;34.904;2023-05-01T14:03:44;9.88;;;3.30;;
70744;SDS011;59284;31.390;34.904;2023-05-01T14:06:16;8.00;;;3.33;;
70744;SDS011;59284;31.390;34.904;2023-05-01T14:08:44;9.07;;;3.03;;
70744;SDS011;59284;31.390;34.904;2023-05-01T14:11:11;10.20;;;3.25;;
70744;SDS011;59284;31.390;34.904;2023-05-01T14:13:40;9.13;;;3.97;;
70744;SDS011;59284;31.390;34.904;2023-05-01T14:16:07;8.68;;;3.63;;
70744;SDS011;59284;31.390;34.904;2023-05-01T14:18:35;8.48;;;2.67;;
70744;SDS011;59284;31.390;34.904;2023-05-01T14:21:01;6.07;;;2.83;;
70744;SDS011;59284;31.390;34.904;2023-05-01T14:23:26;9.00;;;3.78;;
70744;SDS011;59284;31.390;34.904;2023-05-01T14:25:53;11.10;;;3.28;;
70744;SDS011;59284;31.390;34.904;2023-05-01T14:28:18;11.03;;;3.27;;
70744;SDS011;59284;31.390;34.904;2023-05-01T14:30:44;7.80;;;3.40;;
70744;SDS011;59284;31.390;34.904;2023-05-01T14:33:11;11.73;;;4.23;;
70744;SDS011;59284;31.390;34.904;2023-05-01T14:35:48;7.50;;;3.80;;
70744;SDS011;59284;31.390;34.904;2023-05-01T14:38:15;8.32;;;3.33;;
70744;SDS011;59284;31.390;34.904;2023-05-01T14:40:43;10.68;;;3.60;;
70744;SDS011;59284;31.390;34.904;2023-05-01T14:43:09;10.02;;;2.67;;
70744;SDS011;59284;31.390;34.904;2023-05-01T14:45:41;9.00;;;2.97;;
70744;SDS011;59284;31.390;34.904;2023-05-01T14:48:07;8.50;;;2.88;;
70744;SDS011;59284;31.390;34.904;2023-05-01T14:50:35;7.95;;;3.42;;
70744;SDS011;59284;31.390;34.904;2023-05-01T14:53:01;8.85;;;3.28;;
70744;SDS011;59284;31.390;34.904;2023-05-01T14:55:27;9.93;;;3.03;;
70744;SDS011;59284;31.390;34.904;2023-05-01T14:57:56;6.63;;;2.80;;
70744;SDS011;59284;31.390;34.904;2023-05-01T15:00:22;6.43;;;3.17;;
70744;SDS011;59284;31.390;34.904;2023-05-01T15:02:48;8.00;;;3.35;;
70744;SDS011;59284;31.390;34.904;2023-05-01T15:05:14;6.18;;;2.92;;
70744;SDS011;59284;31.390;34.904;2023-05-01T15:07:41;5.60;;;2.93;;
70744;SDS011;59284;31.390;34.904;2023-05-01T15:10:07;8.90;;;3.45;;
70744;SDS011;59284;31.390;34.904;2023-05-01T15:12:33;7.05;;;2.63;;
70744;SDS011;59284;31.390;34.904;2023-05-01T15:14:59;6.43;;;3.10;;
70744;SDS011;59284;31.390;34.904;2023-05-01T15:17:25;7.40;;;3.03;;
70744;SDS011;59284;31.390;34.904;2023-05-01T15:19:51;10.00;;;3.50;;